sensor_id;sensor_type;location;lat;lon;timestamp;temperature;humidity
53264;DHT22;39153;52.680;6.172;2023-08-12T00:01:41;20.50;99.90
53264;DHT22;39153;52.680;6.172;2023-08-12T00:04:07;20.40;99.90
53264;DHT22;39153;52.680;6.172;2023-08-12T00:06:33;20.50;99.90
53264;DHT22;39153;52.680;6.172;2023-08-12T00:08:59;20.50;99.90
53264;DHT22;39153;52.680;6.172;2023-08-12T00:11:24;20.50;99.90
53264;DHT22;39153;52.680;6.172;2023-08-12T00:13:50;20.30;99.90
53264;DHT22;39153;52.680;6.172;2023-08-12T00:16:16;20.40;99.90
53264;DHT22;39153;52.680;6.172;2023-08-12T00:18:41;20.30;99.90
53264;DHT22;39153;52.680;6.172;2023-08-12T00:21:09;20.30;99.90
53264;DHT22;39153;52.680;6.172;2023-08-12T00:23:38;20.40;99.90
53264;DHT22;39153;52.680;6.172;2023-08-12T00:26:05;20.30;99.90
53264;DHT22;39153;52.680;6.172;2023-08-12T00:28:30;20.40;99.90
53264;DHT22;39153;52.680;6.172;2023-08-12T00:30:56;20.30;99.90
53264;DHT22;39153;52.680;6.172;2023-08-12T00:33:22;20.30;99.90
53264;DHT22;39153;52.680;6.172;2023-08-12T00:35:47;20.20;99.90
53264;DHT22;39153;52.680;6.172;2023-08-12T00:38:13;20.20;99.90
53264;DHT22;39153;52.680;6.172;2023-08-12T00:40:39;20.30;99.90
53264;DHT22;39153;52.680;6.172;2023-08-12T00:43:04;20.20;99.90
53264;DHT22;39153;52.680;6.172;2023-08-12T00:45:30;20.20;99.90
53264;DHT22;39153;52.680;6.172;2023-08-12T00:47:56;20.20;99.90
53264;DHT22;39153;52.680;6.172;2023-08-12T00:50:22;20.10;99.90
53264;DHT22;39153;52.680;6.172;2023-08-12T00:52:49;20.10;99.90
53264;DHT22;39153;52.680;6.172;2023-08-12T00:55:15;20.10;99.90
53264;DHT22;39153;52.680;6.172;2023-08-12T00:57:42;20.20;99.90
53264;DHT22;39153;52.680;6.172;2023-08-12T01:00:08;20.10;99.90
53264;DHT22;39153;52.680;6.172;2023-08-12T01:02:34;20.10;99.90
53264;DHT22;39153;52.680;6.172;2023-08-12T01:05:00;20.10;99.90
53264;DHT22;39153;52.680;6.172;2023-08-12T01:07:26;20.00;99.90
53264;DHT22;39153;52.680;6.172;2023-08-12T01:09:52;20.00;99.90
53264;DHT22;39153;52.680;6.172;2023-08-12T01:12:26;19.90;99.90
53264;DHT22;39153;52.680;6.172;2023-08-12T01:15:16;20.10;99.90
53264;DHT22;39153;52.680;6.172;2023-08-12T01:17:43;20.00;99.90
53264;DHT22;39153;52.680;6.172;2023-08-12T01:20:09;20.00;99.90
53264;DHT22;39153;52.680;6.172;2023-08-12T01:22:40;20.00;99.90
53264;DHT22;39153;52.680;6.172;2023-08-12T01:25:07;20.00;99.90
53264;DHT22;39153;52.680;6.172;2023-08-12T01:27:37;19.90;99.90
53264;DHT22;39153;52.680;6.172;2023-08-12T01:30:04;19.90;99.90
53264;DHT22;39153;52.680;6.172;2023-08-12T01:32:52;19.80;99.90
53264;DHT22;39153;52.680;6.172;2023-08-12T01:35:29;19.80;99.90
53264;DHT22;39153;52.680;6.172;2023-08-12T01:37:57;19.70;99.90
53264;DHT22;39153;52.680;6.172;2023-08-12T01:40:25;19.70;99.90
53264;DHT22;39153;52.680;6.172;2023-08-12T01:42:53;19.70;99.90
53264;DHT22;39153;52.680;6.172;2023-08-12T01:45:18;19.70;99.90
53264;DHT22;39153;52.680;6.172;2023-08-12T01:47:45;19.60;99.90
53264;DHT22;39153;52.680;6.172;2023-08-12T01:50:11;19.60;99.90
53264;DHT22;39153;52.680;6.172;2023-08-12T01:52:36;19.70;99.90
53264;DHT22;39153;52.680;6.172;2023-08-12T01:55:02;19.70;99.90
53264;DHT22;39153;52.680;6.172;2023-08-12T01:57:28;19.70;99.90
53264;DHT22;39153;52.680;6.172;2023-08-12T01:59:54;19.70;99.90
53264;DHT22;39153;52.680;6.172;2023-08-12T02:02:19;19.50;99.90
53264;DHT22;39153;52.680;6.172;2023-08-12T02:04:46;19.60;99.90
53264;DHT22;39153;52.680;6.172;2023-08-12T02:07:11;19.60;99.90
53264;DHT22;39153;52.680;6.172;2023-08-12T02:09:37;19.60;99.90
53264;DHT22;39153;52.680;6.172;2023-08-12T02:12:03;19.70;99.90
53264;DHT22;39153;52.680;6.172;2023-08-12T02:14:29;19.40;99.90
53264;DHT22;39153;52.680;6.172;2023-08-12T02:16:54;19.60;99.90
53264;DHT22;39153;52.680;6.172;2023-08-12T02:19:20;19.70;99.90
53264;DHT22;39153;52.680;6.172;2023-08-12T02:21:46;19.70;99.90
53264;DHT22;39153;52.680;6.172;2023-08-12T02:24:12;19.50;99.90
53264;DHT22;39153;52.680;6.172;2023-08-12T02:26:37;19.60;99.90
53264;DHT22;39153;52.680;6.172;2023-08-12T02:29:04;19.60;99.90
53264;DHT22;39153;52.680;6.172;2023-08-12T02:31:29;19.60;99.90
53264;DHT22;39153;52.680;6.172;2023-08-12T02:33:55;19.70;99.90
53264;DHT22;39153;52.680;6.172;2023-08-12T02:36:21;19.60;99.90
53264;DHT22;39153;52.680;6.172;2023-08-12T02:38:47;19.70;99.90
53264;DHT22;39153;52.680;6.172;2023-08-12T02:41:12;19.80;99.90
53264;DHT22;39153;52.680;6.172;2023-08-12T02:43:38;19.80;99.90
53264;DHT22;39153;52.680;6.172;2023-08-12T02:46:04;19.70;99.90
53264;DHT22;39153;52.680;6.172;2023-08-12T02:48:29;19.70;99.90
53264;DHT22;39153;52.680;6.172;2023-08-12T02:50:55;19.90;99.90
53264;DHT22;39153;52.680;6.172;2023-08-12T02:53:21;19.80;99.90
53264;DHT22;39153;52.680;6.172;2023-08-12T02:55:47;19.90;99.90
53264;DHT22;39153;52.680;6.172;2023-08-12T02:58:12;19.70;99.90
53264;DHT22;39153;52.680;6.172;2023-08-12T03:00:41;19.80;99.90
53264;DHT22;39153;52.680;6.172;2023-08-12T03:03:09;19.90;99.90
53264;DHT22;39153;52.680;6.172;2023-08-12T03:05:35;20.00;99.90
53264;DHT22;39153;52.680;6.172;2023-08-12T03:08:01;19.90;99.90
53264;DHT22;39153;52.680;6.172;2023-08-12T03:10:29;19.80;99.90
53264;DHT22;39153;52.680;6.172;2023-08-12T03:12:55;19.90;99.90
53264;DHT22;39153;52.680;6.172;2023-08-12T03:15:20;20.00;99.90
53264;DHT22;39153;52.680;6.172;2023-08-12T03:17:46;19.90;99.90
53264;DHT22;39153;52.680;6.172;2023-08-12T03:20:12;19.80;99.90
53264;DHT22;39153;52.680;6.172;2023-08-12T03:22:38;19.90;99.90
53264;DHT22;39153;52.680;6.172;2023-08-12T03:25:05;20.10;99.90
53264;DHT22;39153;52.680;6.172;2023-08-12T03:27:31;20.00;99.90
53264;DHT22;39153;52.680;6.172;2023-08-12T03:29:57;19.90;99.90
53264;DHT22;39153;52.680;6.172;2023-08-12T03:32:24;20.00;99.90
53264;DHT22;39153;52.680;6.172;2023-08-12T03:34:49;19.90;99.90
53264;DHT22;39153;52.680;6.172;2023-08-12T03:37:15;19.90;99.90
53264;DHT22;39153;52.680;6.172;2023-08-12T03:39:41;20.10;99.90
53264;DHT22;39153;52.680;6.172;2023-08-12T03:42:06;20.10;99.90
53264;DHT22;39153;52.680;6.172;2023-08-12T03:44:32;20.00;99.90
53264;DHT22;39153;52.680;6.172;2023-08-12T03:46:58;20.10;99.90
53264;DHT22;39153;52.680;6.172;2023-08-12T03:49:23;20.10;99.90
53264;DHT22;39153;52.680;6.172;2023-08-12T03:51:49;19.90;99.90
53264;DHT22;39153;52.680;6.172;2023-08-12T03:54:15;20.00;99.90
53264;DHT22;39153;52.680;6.172;2023-08-12T03:56:40;20.00;99.90
53264;DHT22;39153;52.680;6.172;2023-08-12T03:59:06;19.80;99.90
53264;DHT22;39153;52.680;6.172;2023-08-12T04:01:32;20.10;99.90
53264;DHT22;39153;52.680;6.172;2023-08-12T04:03:57;19.90;99.90
53264;DHT22;39153;52.680;6.172;2023-08-12T04:06:23;19.90;99.90
53264;DHT22;39153;52.680;6.172;2023-08-12T04:08:49;19.90;99.90
53264;DHT22;39153;52.680;6.172;2023-08-12T04:11:14;19.90;99.90
53264;DHT22;39153;52.680;6.172;2023-08-12T04:13:40;19.90;99.90
53264;DHT22;39153;52.680;6.172;2023-08-12T04:16:06;20.00;99.90
53264;DHT22;39153;52.680;6.172;2023-08-12T04:18:31;20.00;99.90
53264;DHT22;39153;52.680;6.172;2023-08-12T04:20:57;19.90;99.90
53264;DHT22;39153;52.680;6.172;2023-08-12T04:23:23;19.90;99.90
53264;DHT22;39153;52.680;6.172;2023-08-12T04:25:49;19.80;99.90
53264;DHT22;39153;52.680;6.172;2023-08-12T04:28:15;19.80;99.90
53264;DHT22;39153;52.680;6.172;2023-08-12T04:30:45;20.10;99.90
53264;DHT22;39153;52.680;6.172;2023-08-12T04:33:12;20.10;99.90
53264;DHT22;39153;52.680;6.172;2023-08-12T04:35:38;20.10;99.90
53264;DHT22;39153;52.680;6.172;2023-08-12T04:38:04;20.10;99.90
53264;DHT22;39153;52.680;6.172;2023-08-12T04:40:30;19.80;99.90
53264;DHT22;39153;52.680;6.172;2023-08-12T04:42:58;20.10;99.90
53264;DHT22;39153;52.680;6.172;2023-08-12T04:45:24;20.10;99.90
53264;DHT22;39153;52.680;6.172;2023-08-12T04:47:49;19.80;99.90
53264;DHT22;39153;52.680;6.172;2023-08-12T04:50:15;19.80;99.90
53264;DHT22;39153;52.680;6.172;2023-08-12T04:52:41;19.90;99.90
53264;DHT22;39153;52.680;6.172;2023-08-12T04:55:07;20.00;99.90
53264;DHT22;39153;52.680;6.172;2023-08-12T04:57:33;19.90;99.90
53264;DHT22;39153;52.680;6.172;2023-08-12T04:59:59;19.90;99.90
53264;DHT22;39153;52.680;6.172;2023-08-12T05:02:25;19.90;99.90
53264;DHT22;39153;52.680;6.172;2023-08-12T05:04:51;20.20;99.90
53264;DHT22;39153;52.680;6.172;2023-08-12T05:07:17;20.10;99.90
53264;DHT22;39153;52.680;6.172;2023-08-12T05:09:43;20.20;99.90
53264;DHT22;39153;52.680;6.172;2023-08-12T05:12:12;20.10;99.90
53264;DHT22;39153;52.680;6.172;2023-08-12T05:14:39;20.20;99.90
53264;DHT22;39153;52.680;6.172;2023-08-12T05:17:05;20.30;99.90
53264;DHT22;39153;52.680;6.172;2023-08-12T05:19:31;20.40;99.90
53264;DHT22;39153;52.680;6.172;2023-08-12T05:21:57;20.40;99.90
53264;DHT22;39153;52.680;6.172;2023-08-12T05:24:23;20.40;99.90
53264;DHT22;39153;52.680;6.172;2023-08-12T05:26:48;20.30;99.90
53264;DHT22;39153;52.680;6.172;2023-08-12T05:29:14;20.20;99.90
53264;DHT22;39153;52.680;6.172;2023-08-12T05:31:40;20.30;99.90
53264;DHT22;39153;52.680;6.172;2023-08-12T05:34:06;20.60;99.90
53264;DHT22;39153;52.680;6.172;2023-08-12T05:36:32;20.50;99.90
53264;DHT22;39153;52.680;6.172;2023-08-12T05:38:58;20.30;99.90
53264;DHT22;39153;52.680;6.172;2023-08-12T05:41:24;20.30;99.90
53264;DHT22;39153;52.680;6.172;2023-08-12T05:43:49;20.40;99.90
53264;DHT22;39153;52.680;6.172;2023-08-12T05:46:15;20.30;99.90
53264;DHT22;39153;52.680;6.172;2023-08-12T05:48:41;20.30;99.90
53264;DHT22;39153;52.680;6.172;2023-08-12T05:51:07;20.60;99.90
53264;DHT22;39153;52.680;6.172;2023-08-12T05:53:32;20.60;99.90
53264;DHT22;39153;52.680;6.172;2023-08-12T05:56:01;20.50;99.90
53264;DHT22;39153;52.680;6.172;2023-08-12T05:58:27;20.70;99.90
53264;DHT22;39153;52.680;6.172;2023-08-12T06:00:52;20.40;99.90
53264;DHT22;39153;52.680;6.172;2023-08-12T06:03:18;20.30;99.90
53264;DHT22;39153;52.680;6.172;2023-08-12T06:05:45;20.30;99.90
53264;DHT22;39153;52.680;6.172;2023-08-12T06:08:12;20.60;99.90
53264;DHT22;39153;52.680;6.172;2023-08-12T06:10:38;20.70;99.90
53264;DHT22;39153;52.680;6.172;2023-08-12T06:13:04;20.60;99.90
53264;DHT22;39153;52.680;6.172;2023-08-12T06:15:29;20.30;99.90
53264;DHT22;39153;52.680;6.172;2023-08-12T06:17:55;20.60;99.90
53264;DHT22;39153;52.680;6.172;2023-08-12T06:20:22;20.70;99.90
53264;DHT22;39153;52.680;6.172;2023-08-12T06:22:48;20.50;99.90
53264;DHT22;39153;52.680;6.172;2023-08-12T06:25:13;20.70;99.90
53264;DHT22;39153;52.680;6.172;2023-08-12T06:27:39;20.70;99.90
53264;DHT22;39153;52.680;6.172;2023-08-12T06:30:05;20.30;99.90
53264;DHT22;39153;52.680;6.172;2023-08-12T06:32:33;20.40;99.90
53264;DHT22;39153;52.680;6.172;2023-08-12T06:34:58;20.40;99.90
53264;DHT22;39153;52.680;6.172;2023-08-12T06:37:24;20.60;99.90
53264;DHT22;39153;52.680;6.172;2023-08-12T06:39:50;20.40;99.90
53264;DHT22;39153;52.680;6.172;2023-08-12T06:42:16;20.30;99.90
53264;DHT22;39153;52.680;6.172;2023-08-12T06:44:41;20.40;99.90
53264;DHT22;39153;52.680;6.172;2023-08-12T06:47:07;20.70;99.90
53264;DHT22;39153;52.680;6.172;2023-08-12T06:49:33;20.40;99.90
53264;DHT22;39153;52.680;6.172;2023-08-12T06:51:59;20.50;99.90
53264;DHT22;39153;52.680;6.172;2023-08-12T06:54:24;20.30;99.90
53264;DHT22;39153;52.680;6.172;2023-08-12T06:56:50;20.70;99.90
53264;DHT22;39153;52.680;6.172;2023-08-12T06:59:16;20.70;99.90
53264;DHT22;39153;52.680;6.172;2023-08-12T07:01:42;20.70;99.90
53264;DHT22;39153;52.680;6.172;2023-08-12T07:04:08;20.70;99.90
53264;DHT22;39153;52.680;6.172;2023-08-12T07:06:33;20.70;99.90
53264;DHT22;39153;52.680;6.172;2023-08-12T07:08:59;20.50;99.90
53264;DHT22;39153;52.680;6.172;2023-08-12T07:11:25;20.50;99.90
53264;DHT22;39153;52.680;6.172;2023-08-12T07:13:50;20.60;99.90
53264;DHT22;39153;52.680;6.172;2023-08-12T07:16:16;20.70;99.90
53264;DHT22;39153;52.680;6.172;2023-08-12T07:18:42;20.90;99.90
53264;DHT22;39153;52.680;6.172;2023-08-12T07:21:08;20.90;99.90
53264;DHT22;39153;52.680;6.172;2023-08-12T07:23:33;20.70;99.90
53264;DHT22;39153;52.680;6.172;2023-08-12T07:25:59;20.60;99.90
53264;DHT22;39153;52.680;6.172;2023-08-12T07:28:25;20.50;99.90
53264;DHT22;39153;52.680;6.172;2023-08-12T07:30:50;20.50;99.90
53264;DHT22;39153;52.680;6.172;2023-08-12T07:33:19;20.50;99.90
53264;DHT22;39153;52.680;6.172;2023-08-12T07:35:45;20.80;99.90
53264;DHT22;39153;52.680;6.172;2023-08-12T07:38:10;20.80;99.90
53264;DHT22;39153;52.680;6.172;2023-08-12T07:40:36;20.80;99.90
53264;DHT22;39153;52.680;6.172;2023-08-12T07:43:02;20.50;99.90
53264;DHT22;39153;52.680;6.172;2023-08-12T07:45:27;20.40;99.90
53264;DHT22;39153;52.680;6.172;2023-08-12T07:47:53;20.50;99.90
53264;DHT22;39153;52.680;6.172;2023-08-12T07:50:19;20.80;99.90
53264;DHT22;39153;52.680;6.172;2023-08-12T07:52:45;20.40;99.90
53264;DHT22;39153;52.680;6.172;2023-08-12T07:55:11;20.40;99.90
53264;DHT22;39153;52.680;6.172;2023-08-12T07:57:37;20.30;99.90
53264;DHT22;39153;52.680;6.172;2023-08-12T08:00:04;20.20;99.90
53264;DHT22;39153;52.680;6.172;2023-08-12T08:02:30;20.20;99.90
53264;DHT22;39153;52.680;6.172;2023-08-12T08:04:56;20.40;99.90
53264;DHT22;39153;52.680;6.172;2023-08-12T08:07:22;20.40;99.90
53264;DHT22;39153;52.680;6.172;2023-08-12T08:09:48;20.60;99.90
53264;DHT22;39153;52.680;6.172;2023-08-12T08:12:13;20.60;99.90
53264;DHT22;39153;52.680;6.172;2023-08-12T08:14:39;20.10;99.90
53264;DHT22;39153;52.680;6.172;2023-08-12T08:17:05;20.10;99.90
53264;DHT22;39153;52.680;6.172;2023-08-12T08:19:31;20.10;99.90
53264;DHT22;39153;52.680;6.172;2023-08-12T08:21:57;20.00;99.90
53264;DHT22;39153;52.680;6.172;2023-08-12T08:24:23;20.50;99.90
53264;DHT22;39153;52.680;6.172;2023-08-12T08:26:49;20.20;99.90
53264;DHT22;39153;52.680;6.172;2023-08-12T08:29:15;20.00;99.90
53264;DHT22;39153;52.680;6.172;2023-08-12T08:31:40;20.40;99.90
53264;DHT22;39153;52.680;6.172;2023-08-12T08:34:06;20.40;99.90
53264;DHT22;39153;52.680;6.172;2023-08-12T08:36:32;19.90;99.90
53264;DHT22;39153;52.680;6.172;2023-08-12T08:38:58;20.00;99.90
53264;DHT22;39153;52.680;6.172;2023-08-12T08:41:24;20.50;99.90
53264;DHT22;39153;52.680;6.172;2023-08-12T08:43:52;19.90;99.90
53264;DHT22;39153;52.680;6.172;2023-08-12T08:46:21;20.30;99.90
53264;DHT22;39153;52.680;6.172;2023-08-12T08:48:47;20.40;99.90
53264;DHT22;39153;52.680;6.172;2023-08-12T08:51:14;20.20;99.90
53264;DHT22;39153;52.680;6.172;2023-08-12T08:53:40;20.00;99.90
53264;DHT22;39153;52.680;6.172;2023-08-12T08:56:07;20.30;99.90
53264;DHT22;39153;52.680;6.172;2023-08-12T08:58:33;20.00;99.90
53264;DHT22;39153;52.680;6.172;2023-08-12T09:00:59;20.00;99.90
53264;DHT22;39153;52.680;6.172;2023-08-12T09:03:26;20.20;99.90
53264;DHT22;39153;52.680;6.172;2023-08-12T09:05:53;20.00;99.90
53264;DHT22;39153;52.680;6.172;2023-08-12T09:08:20;20.20;99.90
53264;DHT22;39153;52.680;6.172;2023-08-12T09:10:47;20.20;99.90
53264;DHT22;39153;52.680;6.172;2023-08-12T09:13:13;20.30;99.90
53264;DHT22;39153;52.680;6.172;2023-08-12T09:15:40;20.60;99.90
53264;DHT22;39153;52.680;6.172;2023-08-12T09:18:06;20.50;99.90
53264;DHT22;39153;52.680;6.172;2023-08-12T09:20:35;20.50;99.90
53264;DHT22;39153;52.680;6.172;2023-08-12T09:23:01;20.20;99.90
53264;DHT22;39153;52.680;6.172;2023-08-12T09:25:28;20.30;99.90
53264;DHT22;39153;52.680;6.172;2023-08-12T09:28:01;19.80;99.90
53264;DHT22;39153;52.680;6.172;2023-08-12T09:30:30;20.10;99.90
53264;DHT22;39153;52.680;6.172;2023-08-12T09:33:00;19.90;99.90
53264;DHT22;39153;52.680;6.172;2023-08-12T09:35:32;20.10;99.90
53264;DHT22;39153;52.680;6.172;2023-08-12T09:37:58;20.30;99.90
53264;DHT22;39153;52.680;6.172;2023-08-12T09:40:24;20.50;99.90
53264;DHT22;39153;52.680;6.172;2023-08-12T09:42:50;20.00;99.90
53264;DHT22;39153;52.680;6.172;2023-08-12T09:45:16;20.00;99.90
53264;DHT22;39153;52.680;6.172;2023-08-12T09:47:45;20.60;99.90
53264;DHT22;39153;52.680;6.172;2023-08-12T09:50:11;20.50;99.90
53264;DHT22;39153;52.680;6.172;2023-08-12T09:52:39;20.50;99.90
53264;DHT22;39153;52.680;6.172;2023-08-12T09:55:07;20.20;99.90
53264;DHT22;39153;52.680;6.172;2023-08-12T09:57:33;20.40;99.90
53264;DHT22;39153;52.680;6.172;2023-08-12T10:00:02;20.30;99.90
53264;DHT22;39153;52.680;6.172;2023-08-12T10:02:29;20.70;99.90
53264;DHT22;39153;52.680;6.172;2023-08-12T10:04:56;20.30;99.90
53264;DHT22;39153;52.680;6.172;2023-08-12T10:07:24;20.40;99.90
53264;DHT22;39153;52.680;6.172;2023-08-12T10:09:50;20.30;99.90
53264;DHT22;39153;52.680;6.172;2023-08-12T10:12:17;20.60;99.90
53264;DHT22;39153;52.680;6.172;2023-08-12T10:14:43;20.90;99.90
53264;DHT22;39153;52.680;6.172;2023-08-12T10:17:10;20.60;99.90
53264;DHT22;39153;52.680;6.172;2023-08-12T10:19:36;20.80;99.90
53264;DHT22;39153;52.680;6.172;2023-08-12T10:22:03;20.50;99.90
53264;DHT22;39153;52.680;6.172;2023-08-12T10:24:29;21.10;99.90
53264;DHT22;39153;52.680;6.172;2023-08-12T10:26:55;20.70;99.90
53264;DHT22;39153;52.680;6.172;2023-08-12T10:29:23;20.80;99.90
53264;DHT22;39153;52.680;6.172;2023-08-12T10:31:50;20.50;99.90
53264;DHT22;39153;52.680;6.172;2023-08-12T10:34:23;20.90;99.90
53264;DHT22;39153;52.680;6.172;2023-08-12T10:36:56;21.10;99.90
53264;DHT22;39153;52.680;6.172;2023-08-12T10:39:26;21.00;99.90
53264;DHT22;39153;52.680;6.172;2023-08-12T10:41:54;20.70;99.90
53264;DHT22;39153;52.680;6.172;2023-08-12T10:44:21;21.00;99.90
53264;DHT22;39153;52.680;6.172;2023-08-12T10:46:51;20.80;99.90
53264;DHT22;39153;52.680;6.172;2023-08-12T10:49:19;20.60;99.90
53264;DHT22;39153;52.680;6.172;2023-08-12T10:51:51;20.80;99.90
53264;DHT22;39153;52.680;6.172;2023-08-12T11:02:30;20.70;99.90
53264;DHT22;39153;52.680;6.172;2023-08-12T11:04:56;20.90;99.90
53264;DHT22;39153;52.680;6.172;2023-08-12T11:07:44;21.10;99.90
53264;DHT22;39153;52.680;6.172;2023-08-12T11:10:17;20.70;99.90
53264;DHT22;39153;52.680;6.172;2023-08-12T11:15:16;20.60;99.90
53264;DHT22;39153;52.680;6.172;2023-08-12T11:17:43;20.60;99.90
53264;DHT22;39153;52.680;6.172;2023-08-12T11:20:12;20.30;99.90
53264;DHT22;39153;52.680;6.172;2023-08-12T11:22:43;20.10;99.90
53264;DHT22;39153;52.680;6.172;2023-08-12T11:25:11;20.30;99.90
53264;DHT22;39153;52.680;6.172;2023-08-12T11:27:45;20.30;99.90
53264;DHT22;39153;52.680;6.172;2023-08-12T11:30:12;20.00;99.90
53264;DHT22;39153;52.680;6.172;2023-08-12T11:32:43;19.80;99.90
53264;DHT22;39153;52.680;6.172;2023-08-12T11:35:10;20.20;99.90
53264;DHT22;39153;52.680;6.172;2023-08-12T11:37:37;20.00;99.90
53264;DHT22;39153;52.680;6.172;2023-08-12T11:40:08;20.50;99.90
53264;DHT22;39153;52.680;6.172;2023-08-12T11:42:41;20.30;99.90
53264;DHT22;39153;52.680;6.172;2023-08-12T11:45:07;20.50;99.90
53264;DHT22;39153;52.680;6.172;2023-08-12T11:47:35;20.50;99.90
53264;DHT22;39153;52.680;6.172;2023-08-12T11:50:04;20.50;99.90
53264;DHT22;39153;52.680;6.172;2023-08-12T11:52:31;20.70;99.90
53264;DHT22;39153;52.680;6.172;2023-08-12T11:54:57;20.80;99.90
53264;DHT22;39153;52.680;6.172;2023-08-12T11:57:23;20.90;99.90
53264;DHT22;39153;52.680;6.172;2023-08-12T11:59:57;21.10;99.90
53264;DHT22;39153;52.680;6.172;2023-08-12T12:02:23;21.00;99.90
53264;DHT22;39153;52.680;6.172;2023-08-12T12:04:51;21.00;99.90
53264;DHT22;39153;52.680;6.172;2023-08-12T12:07:22;21.10;99.90
53264;DHT22;39153;52.680;6.172;2023-08-12T12:09:52;21.10;99.90
53264;DHT22;39153;52.680;6.172;2023-08-12T12:12:21;21.20;99.90
53264;DHT22;39153;52.680;6.172;2023-08-12T12:14:48;21.30;99.90
53264;DHT22;39153;52.680;6.172;2023-08-12T12:17:14;21.60;99.90
53264;DHT22;39153;52.680;6.172;2023-08-12T12:19:40;21.80;99.90
53264;DHT22;39153;52.680;6.172;2023-08-12T12:22:07;22.20;99.90
53264;DHT22;39153;52.680;6.172;2023-08-12T12:24:44;22.30;99.90
53264;DHT22;39153;52.680;6.172;2023-08-12T12:27:11;22.20;99.90
53264;DHT22;39153;52.680;6.172;2023-08-12T12:29:36;22.40;99.90
53264;DHT22;39153;52.680;6.172;2023-08-12T12:32:02;22.50;99.90
53264;DHT22;39153;52.680;6.172;2023-08-12T12:34:28;22.70;99.90
53264;DHT22;39153;52.680;6.172;2023-08-12T12:36:54;22.80;99.90
53264;DHT22;39153;52.680;6.172;2023-08-12T12:39:19;23.00;99.90
53264;DHT22;39153;52.680;6.172;2023-08-12T12:41:45;22.90;99.90
53264;DHT22;39153;52.680;6.172;2023-08-12T12:44:11;22.90;99.90
53264;DHT22;39153;52.680;6.172;2023-08-12T12:46:36;23.10;99.90
53264;DHT22;39153;52.680;6.172;2023-08-12T12:49:02;23.30;99.90
53264;DHT22;39153;52.680;6.172;2023-08-12T12:51:28;23.50;99.90
53264;DHT22;39153;52.680;6.172;2023-08-12T12:53:54;23.60;99.90
53264;DHT22;39153;52.680;6.172;2023-08-12T12:56:19;23.50;99.90
53264;DHT22;39153;52.680;6.172;2023-08-12T12:58:45;23.50;99.90
53264;DHT22;39153;52.680;6.172;2023-08-12T13:01:11;23.60;99.90
53264;DHT22;39153;52.680;6.172;2023-08-12T13:03:36;23.70;99.90
53264;DHT22;39153;52.680;6.172;2023-08-12T13:06:02;23.80;99.90
53264;DHT22;39153;52.680;6.172;2023-08-12T13:08:29;23.80;99.90
53264;DHT22;39153;52.680;6.172;2023-08-12T13:10:56;24.00;99.90
53264;DHT22;39153;52.680;6.172;2023-08-12T13:13:22;24.10;99.90
53264;DHT22;39153;52.680;6.172;2023-08-12T13:15:47;24.20;99.90
53264;DHT22;39153;52.680;6.172;2023-08-12T13:18:13;24.30;99.90
53264;DHT22;39153;52.680;6.172;2023-08-12T13:20:39;24.30;99.90
53264;DHT22;39153;52.680;6.172;2023-08-12T13:23:05;24.30;99.90
53264;DHT22;39153;52.680;6.172;2023-08-12T13:25:33;24.50;99.90
53264;DHT22;39153;52.680;6.172;2023-08-12T13:28:00;24.60;99.90
53264;DHT22;39153;52.680;6.172;2023-08-12T13:30:26;24.70;99.90
53264;DHT22;39153;52.680;6.172;2023-08-12T13:32:52;24.70;99.90
53264;DHT22;39153;52.680;6.172;2023-08-12T13:35:18;24.90;99.90
53264;DHT22;39153;52.680;6.172;2023-08-12T13:37:44;25.00;99.90
53264;DHT22;39153;52.680;6.172;2023-08-12T13:40:09;25.10;99.90
53264;DHT22;39153;52.680;6.172;2023-08-12T13:42:37;25.20;99.90
53264;DHT22;39153;52.680;6.172;2023-08-12T13:45:04;25.40;99.90
53264;DHT22;39153;52.680;6.172;2023-08-12T13:47:30;25.40;99.90
53264;DHT22;39153;52.680;6.172;2023-08-12T13:49:56;25.60;99.90
53264;DHT22;39153;52.680;6.172;2023-08-12T13:52:22;25.70;99.90
53264;DHT22;39153;52.680;6.172;2023-08-12T13:54:47;25.70;99.90
53264;DHT22;39153;52.680;6.172;2023-08-12T13:57:13;25.70;99.90
53264;DHT22;39153;52.680;6.172;2023-08-12T13:59:39;25.70;99.90
53264;DHT22;39153;52.680;6.172;2023-08-12T14:02:11;25.80;99.90
53264;DHT22;39153;52.680;6.172;2023-08-12T14:04:37;25.80;99.90
53264;DHT22;39153;52.680;6.172;2023-08-12T14:07:06;25.90;99.90
53264;DHT22;39153;52.680;6.172;2023-08-12T14:09:33;25.90;99.90
53264;DHT22;39153;52.680;6.172;2023-08-12T14:11:59;25.90;99.90
53264;DHT22;39153;52.680;6.172;2023-08-12T14:14:25;26.00;99.90
53264;DHT22;39153;52.680;6.172;2023-08-12T14:16:54;26.10;99.90
53264;DHT22;39153;52.680;6.172;2023-08-12T14:19:20;26.20;99.90
53264;DHT22;39153;52.680;6.172;2023-08-12T14:21:46;26.40;99.90
53264;DHT22;39153;52.680;6.172;2023-08-12T14:24:12;26.50;99.90
53264;DHT22;39153;52.680;6.172;2023-08-12T14:26:39;26.80;99.90
53264;DHT22;39153;52.680;6.172;2023-08-12T14:29:05;27.00;99.90
53264;DHT22;39153;52.680;6.172;2023-08-12T14:31:31;26.90;99.90
53264;DHT22;39153;52.680;6.172;2023-08-12T14:33:57;27.00;99.90
53264;DHT22;39153;52.680;6.172;2023-08-12T14:36:23;27.10;99.90
53264;DHT22;39153;52.680;6.172;2023-08-12T14:38:50;27.00;99.90
53264;DHT22;39153;52.680;6.172;2023-08-12T14:41:16;27.00;99.90
53264;DHT22;39153;52.680;6.172;2023-08-12T14:43:42;27.00;99.90
53264;DHT22;39153;52.680;6.172;2023-08-12T14:46:07;27.10;99.90
53264;DHT22;39153;52.680;6.172;2023-08-12T14:48:33;27.10;99.90
53264;DHT22;39153;52.680;6.172;2023-08-12T14:50:59;27.10;99.90
53264;DHT22;39153;52.680;6.172;2023-08-12T14:53:25;27.10;99.90
53264;DHT22;39153;52.680;6.172;2023-08-12T14:55:51;27.20;99.90
53264;DHT22;39153;52.680;6.172;2023-08-12T14:58:17;27.10;99.90
53264;DHT22;39153;52.680;6.172;2023-08-12T15:00:43;27.00;99.90
53264;DHT22;39153;52.680;6.172;2023-08-12T15:03:08;27.20;99.90
53264;DHT22;39153;52.680;6.172;2023-08-12T15:05:36;27.30;99.90
53264;DHT22;39153;52.680;6.172;2023-08-12T15:08:02;27.40;99.90
53264;DHT22;39153;52.680;6.172;2023-08-12T15:10:29;27.40;99.90
53264;DHT22;39153;52.680;6.172;2023-08-12T15:12:55;27.50;99.90
53264;DHT22;39153;52.680;6.172;2023-08-12T15:15:21;27.50;99.90
53264;DHT22;39153;52.680;6.172;2023-08-12T15:17:46;27.60;99.90
53264;DHT22;39153;52.680;6.172;2023-08-12T15:20:12;27.70;99.90
53264;DHT22;39153;52.680;6.172;2023-08-12T15:22:38;27.90;99.90
53264;DHT22;39153;52.680;6.172;2023-08-12T15:25:05;28.10;99.90
53264;DHT22;39153;52.680;6.172;2023-08-12T15:27:31;28.10;99.90
53264;DHT22;39153;52.680;6.172;2023-08-12T15:29:57;28.00;99.90
53264;DHT22;39153;52.680;6.172;2023-08-12T15:32:23;27.90;99.90
53264;DHT22;39153;52.680;6.172;2023-08-12T15:34:49;27.80;99.90
53264;DHT22;39153;52.680;6.172;2023-08-12T15:37:14;27.90;99.90